createdAt,value
2017-08-28T00:01:14.243Z,99.90
2017-08-28T00:03:41.758Z,99.90
2017-08-28T00:06:09.290Z,99.90
2017-08-28T00:08:36.802Z,99.90
2017-08-28T00:11:04.329Z,99.90
2017-08-28T00:13:31.837Z,99.90
2017-08-28T00:15:59.369Z,99.90
2017-08-28T00:18:26.894Z,99.90
2017-08-28T00:20:54.430Z,99.90
2017-08-28T00:23:21.947Z,99.90
2017-08-28T00:25:49.481Z,99.90
2017-08-28T00:28:16.999Z,99.90
2017-08-28T00:30:44.537Z,99.90
2017-08-28T00:33:12.045Z,99.90
2017-08-28T00:35:39.565Z,99.90
2017-08-28T00:38:07.099Z,99.90
2017-08-28T00:40:34.609Z,99.90
2017-08-28T00:43:02.138Z,99.90
2017-08-28T00:45:33.117Z,99.90
2017-08-28T00:48:00.649Z,99.90
2017-08-28T00:50:28.159Z,99.90
2017-08-28T00:52:55.691Z,99.90
2017-08-28T00:55:23.198Z,99.90
2017-08-28T00:57:50.728Z,99.90
2017-08-28T01:00:18.249Z,99.90
2017-08-28T01:02:45.773Z,99.90
2017-08-28T01:05:13.293Z,99.90
2017-08-28T01:07:40.831Z,99.90
2017-08-28T01:10:08.347Z,99.90
2017-08-28T01:12:35.888Z,99.90
2017-08-28T01:15:03.408Z,99.90
2017-08-28T01:17:30.941Z,99.90
2017-08-28T01:19:58.461Z,99.90
2017-08-28T01:22:25.999Z,99.90
2017-08-28T01:24:53.502Z,99.90
2017-08-28T01:27:21.042Z,99.90
2017-08-28T01:29:48.562Z,99.90
2017-08-28T01:32:16.080Z,99.90
2017-08-28T01:34:43.620Z,99.90
2017-08-28T01:37:11.129Z,99.90
2017-08-28T01:39:38.653Z,99.90
2017-08-28T01:42:06.168Z,99.90
2017-08-28T01:44:33.688Z,99.90
2017-08-28T01:47:01.189Z,99.90
2017-08-28T01:49:28.718Z,99.90
2017-08-28T01:51:56.226Z,99.90
2017-08-28T01:54:23.741Z,99.90
2017-08-28T01:56:51.257Z,99.90
2017-08-28T01:59:19.671Z,99.90
2017-08-28T02:01:47.201Z,99.90
2017-08-28T02:04:14.728Z,99.90
2017-08-28T02:06:42.236Z,99.90
2017-08-28T02:09:09.779Z,99.90
2017-08-28T02:11:37.286Z,99.90
2017-08-28T02:14:04.828Z,99.90
2017-08-28T02:16:32.346Z,99.90
2017-08-28T02:18:59.878Z,99.90
2017-08-28T02:21:27.401Z,99.90
2017-08-28T02:23:54.915Z,99.90
2017-08-28T02:26:22.446Z,99.90
2017-08-28T02:28:49.972Z,99.90
2017-08-28T02:31:17.744Z,99.90
2017-08-28T02:33:45.257Z,99.90
2017-08-28T02:36:12.795Z,99.90
2017-08-28T02:38:40.319Z,99.90
2017-08-28T02:41:07.849Z,99.90
2017-08-28T02:43:35.362Z,99.90
2017-08-28T02:46:02.897Z,99.90
2017-08-28T02:48:30.422Z,99.90
2017-08-28T02:50:57.963Z,99.90
2017-08-28T02:53:25.488Z,99.90
2017-08-28T02:55:53.009Z,99.90
2017-08-28T02:58:20.522Z,99.90
2017-08-28T03:00:48.055Z,99.90
2017-08-28T03:03:15.575Z,99.90
2017-08-28T03:05:43.115Z,99.90
2017-08-28T03:08:10.632Z,99.90
2017-08-28T03:10:38.163Z,99.90
2017-08-28T03:13:05.664Z,99.90
2017-08-28T03:15:33.206Z,99.90
2017-08-28T03:18:00.712Z,99.90
2017-08-28T03:20:28.289Z,99.90
2017-08-28T03:22:55.814Z,99.90
2017-08-28T03:25:23.313Z,99.90
2017-08-28T03:27:50.837Z,99.90
2017-08-28T03:30:18.345Z,99.90
2017-08-28T03:32:46.134Z,99.90
2017-08-28T03:35:13.698Z,99.90
2017-08-28T03:37:41.232Z,99.90
2017-08-28T03:40:08.743Z,99.90
2017-08-28T03:42:36.268Z,99.90
2017-08-28T03:45:03.776Z,99.90
2017-08-28T03:47:31.308Z,99.90
2017-08-28T03:49:59.073Z,99.90
2017-08-28T03:52:26.974Z,99.90
2017-08-28T03:54:54.472Z,99.90
2017-08-28T03:57:21.988Z,99.90
2017-08-28T03:59:49.491Z,99.90
2017-08-28T04:02:17.020Z,99.90
2017-08-28T04:04:44.529Z,99.90
2017-08-28T04:07:12.064Z,99.90
2017-08-28T04:09:39.577Z,99.90
2017-08-28T04:12:07.080Z,99.90
2017-08-28T04:14:34.600Z,99.90
2017-08-28T04:17:02.109Z,99.90
2017-08-28T04:19:29.743Z,99.90
2017-08-28T04:21:57.296Z,99.90
2017-08-28T04:24:24.857Z,99.90
2017-08-28T04:26:52.364Z,99.90
2017-08-28T04:29:19.884Z,99.90
2017-08-28T04:31:47.386Z,99.90
2017-08-28T04:34:14.912Z,99.90
2017-08-28T04:36:42.413Z,99.90
2017-08-28T04:39:09.928Z,99.90
2017-08-28T04:41:37.786Z,99.90
2017-08-28T04:44:05.321Z,99.90
2017-08-28T04:46:32.845Z,99.90
2017-08-28T04:49:00.517Z,99.90
2017-08-28T04:51:28.019Z,99.90
2017-08-28T04:53:55.523Z,99.90
2017-08-28T04:56:23.060Z,99.90
2017-08-28T04:58:50.592Z,99.90
2017-08-28T05:01:18.129Z,99.90
2017-08-28T05:03:45.652Z,99.90
2017-08-28T05:06:13.185Z,99.90
2017-08-28T05:08:40.689Z,99.90
2017-08-28T05:11:08.192Z,99.90
2017-08-28T05:13:35.716Z,99.90
2017-08-28T05:16:03.258Z,99.90
2017-08-28T05:18:30.778Z,99.90
2017-08-28T05:20:58.322Z,99.90
2017-08-28T05:23:25.853Z,99.90
2017-08-28T05:25:53.363Z,99.90
2017-08-28T05:28:20.868Z,99.90
2017-08-28T05:30:48.384Z,99.90
2017-08-28T05:33:15.884Z,99.90
2017-08-28T05:35:43.400Z,99.90
2017-08-28T05:38:10.944Z,99.90
2017-08-28T05:40:38.457Z,99.90
2017-08-28T05:43:05.955Z,99.90
2017-08-28T05:45:33.479Z,99.90
2017-08-28T05:48:00.975Z,99.90
2017-08-28T05:50:28.477Z,99.90
2017-08-28T05:52:55.989Z,99.90
2017-08-28T05:55:23.484Z,99.90
2017-08-28T05:57:51.000Z,99.90
2017-08-28T06:00:18.511Z,99.90
2017-08-28T06:02:48.576Z,99.70
2017-08-28T06:05:16.096Z,99.60
2017-08-28T06:07:48.384Z,99.20
2017-08-28T06:10:15.905Z,99.30
2017-08-28T06:12:43.409Z,99.10
2017-08-28T06:15:10.937Z,98.80
2017-08-28T06:17:38.429Z,98.80
2017-08-28T06:20:05.943Z,96.80
2017-08-28T06:22:33.445Z,96.80
2017-08-28T06:25:00.978Z,97.10
2017-08-28T06:27:28.844Z,96.80
2017-08-28T06:29:56.392Z,96.90
2017-08-28T06:32:23.896Z,96.80
2017-08-28T06:34:51.710Z,96.20
2017-08-28T06:37:19.284Z,95.00
2017-08-28T06:39:46.798Z,95.50
2017-08-28T06:42:14.636Z,95.40
2017-08-28T06:44:42.136Z,95.30
2017-08-28T06:47:09.665Z,95.30
2017-08-28T06:49:37.172Z,95.10
2017-08-28T06:52:04.676Z,94.90
2017-08-28T06:54:32.204Z,95.30
2017-08-28T06:56:59.705Z,95.20
2017-08-28T06:59:27.220Z,95.40
2017-08-28T07:01:54.712Z,94.80
2017-08-28T07:04:22.233Z,95.00
2017-08-28T07:06:49.738Z,94.90
2017-08-28T07:09:17.262Z,94.40
2017-08-28T07:11:44.775Z,94.90
2017-08-28T07:14:12.276Z,94.20
2017-08-28T07:16:39.802Z,94.30
2017-08-28T07:19:07.310Z,94.10
2017-08-28T07:21:34.836Z,94.30
2017-08-28T07:24:02.344Z,94.50
2017-08-28T07:26:29.861Z,94.10
2017-08-28T07:28:57.376Z,94.40
2017-08-28T07:31:24.900Z,93.70
2017-08-28T07:33:52.404Z,93.40
2017-08-28T07:36:19.905Z,93.60
2017-08-28T07:38:47.417Z,93.20
2017-08-28T07:41:14.925Z,93.00
2017-08-28T07:43:42.457Z,93.10
2017-08-28T07:46:09.961Z,92.60
2017-08-28T07:48:37.492Z,92.40
2017-08-28T07:51:05.000Z,92.10
2017-08-28T07:53:32.505Z,92.50
2017-08-28T07:56:00.060Z,92.40
2017-08-28T07:58:27.571Z,92.20
2017-08-28T08:00:55.100Z,92.40
2017-08-28T08:03:22.615Z,92.40
2017-08-28T08:05:50.141Z,92.30
2017-08-28T08:08:17.761Z,92.70
2017-08-28T08:10:45.264Z,92.60
2017-08-28T08:13:12.792Z,92.90
2017-08-28T08:15:40.305Z,92.80
2017-08-28T08:18:07.825Z,92.70
2017-08-28T08:20:35.332Z,92.80
2017-08-28T08:23:02.844Z,93.00
2017-08-28T08:25:30.355Z,93.00
2017-08-28T08:27:57.861Z,92.90
2017-08-28T08:30:25.385Z,93.10
2017-08-28T08:32:52.888Z,93.00
2017-08-28T08:35:20.425Z,92.90
2017-08-28T08:37:47.927Z,92.90
2017-08-28T08:40:15.462Z,92.40
2017-08-28T08:42:42.951Z,92.20
2017-08-28T08:45:10.462Z,92.00
2017-08-28T08:47:37.977Z,91.90
2017-08-28T08:50:05.485Z,92.30
2017-08-28T08:52:33.020Z,92.10
2017-08-28T08:55:00.568Z,92.50
2017-08-28T08:57:28.111Z,92.30
2017-08-28T08:59:55.617Z,91.60
2017-08-28T09:02:23.131Z,91.20
2017-08-28T09:04:50.641Z,91.10
2017-08-28T09:07:18.154Z,92.00
2017-08-28T09:09:45.687Z,91.70
2017-08-28T09:12:13.187Z,92.40
2017-08-28T09:14:40.700Z,91.80
2017-08-28T09:17:08.213Z,92.00
2017-08-28T09:19:35.732Z,91.90
2017-08-28T09:22:03.372Z,91.80
2017-08-28T09:24:30.906Z,91.50
2017-08-28T09:26:58.429Z,91.60
2017-08-28T09:29:25.940Z,92.00
2017-08-28T09:31:53.460Z,90.70
2017-08-28T09:34:20.966Z,90.70
2017-08-28T09:36:48.486Z,91.10
2017-08-28T09:39:15.988Z,91.60
2017-08-28T09:41:43.501Z,91.30
2017-08-28T09:44:11.024Z,91.00
2017-08-28T09:46:38.537Z,91.40
2017-08-28T09:49:06.062Z,91.00
2017-08-28T09:51:33.565Z,90.70
2017-08-28T09:54:01.096Z,90.20
2017-08-28T09:56:28.920Z,90.90
2017-08-28T09:58:56.420Z,90.40
2017-08-28T10:01:23.933Z,90.50
2017-08-28T10:03:51.495Z,90.90
2017-08-28T10:06:19.013Z,90.40
2017-08-28T10:08:46.583Z,90.60
2017-08-28T10:11:14.303Z,90.80
2017-08-28T10:13:41.877Z,89.70
2017-08-28T10:16:09.405Z,89.90
2017-08-28T10:18:36.958Z,88.80
2017-08-28T10:21:04.494Z,90.10
2017-08-28T10:23:32.044Z,87.80
2017-08-28T10:25:59.562Z,86.50
2017-08-28T10:28:27.114Z,86.70
2017-08-28T10:30:54.663Z,88.10
2017-08-28T10:33:22.188Z,87.70
2017-08-28T10:35:49.737Z,87.60
2017-08-28T10:38:17.314Z,88.30
2017-08-28T10:40:45.702Z,88.10
2017-08-28T10:43:14.449Z,87.20
2017-08-28T10:45:42.005Z,87.10
2017-08-28T10:48:09.511Z,86.60
2017-08-28T10:50:37.038Z,86.10
2017-08-28T10:53:10.354Z,86.90
2017-08-28T10:55:37.872Z,84.50
2017-08-28T10:58:05.394Z,84.00
2017-08-28T11:00:32.888Z,83.60
2017-08-28T11:03:00.414Z,83.90
2017-08-28T11:05:28.033Z,85.10
2017-08-28T11:07:55.584Z,85.10
2017-08-28T11:10:23.080Z,84.30
2017-08-28T11:12:50.572Z,85.10
2017-08-28T11:15:18.177Z,85.10
2017-08-28T11:17:45.744Z,85.10
2017-08-28T11:20:13.288Z,82.90
2017-08-28T11:22:40.817Z,83.00
2017-08-28T11:25:08.354Z,82.00
2017-08-28T11:27:35.887Z,82.60
2017-08-28T11:30:03.396Z,82.50
2017-08-28T11:32:30.937Z,81.50
2017-08-28T11:34:58.458Z,80.90
2017-08-28T11:37:26.009Z,80.60
2017-08-28T11:39:53.526Z,81.20
2017-08-28T11:42:21.072Z,81.70
2017-08-28T11:44:48.596Z,80.80
2017-08-28T11:47:16.129Z,81.10
2017-08-28T11:49:43.676Z,80.30
2017-08-28T11:52:11.203Z,78.90
2017-08-28T11:54:38.749Z,78.00
2017-08-28T11:57:06.281Z,79.30
2017-08-28T11:59:33.820Z,79.50
2017-08-28T12:02:01.341Z,79.10
2017-08-28T12:04:28.900Z,79.00
2017-08-28T12:06:56.409Z,78.80
2017-08-28T12:09:24.816Z,77.90
2017-08-28T12:11:52.356Z,79.20
2017-08-28T12:14:19.871Z,77.20
2017-08-28T12:16:47.428Z,79.50
2017-08-28T12:19:14.999Z,78.40
2017-08-28T12:21:42.571Z,77.50
2017-08-28T12:24:10.203Z,78.90
2017-08-28T12:26:37.746Z,77.40
2017-08-28T12:29:05.305Z,76.60
2017-08-28T12:31:32.841Z,76.10
2017-08-28T12:34:00.431Z,76.30
2017-08-28T12:36:27.957Z,77.10
2017-08-28T12:38:55.503Z,75.90
2017-08-28T12:41:23.037Z,76.20
2017-08-28T12:43:50.566Z,76.50
2017-08-28T12:46:18.137Z,76.50
2017-08-28T12:48:45.651Z,74.90
2017-08-28T12:51:13.197Z,75.10
2017-08-28T12:53:40.761Z,75.00
2017-08-28T12:56:21.234Z,76.10
2017-08-28T12:58:48.748Z,75.60
2017-08-28T13:01:16.310Z,75.70
2017-08-28T13:03:43.818Z,76.70
2017-08-28T13:06:11.357Z,76.40
2017-08-28T13:08:39.094Z,74.90
2017-08-28T13:11:06.671Z,75.70
2017-08-28T13:13:34.283Z,74.40
2017-08-28T13:16:02.449Z,74.90
2017-08-28T13:18:30.891Z,75.90
2017-08-28T13:20:58.433Z,73.10
2017-08-28T13:23:25.997Z,71.20
2017-08-28T13:26:01.662Z,71.80
2017-08-28T13:28:29.269Z,72.60
2017-08-28T13:30:56.806Z,71.30
2017-08-28T13:33:24.328Z,73.00
2017-08-28T13:35:51.921Z,72.80
2017-08-28T13:38:19.489Z,71.70
2017-08-28T13:40:47.235Z,71.20
2017-08-28T13:43:14.891Z,72.60
2017-08-28T13:45:42.525Z,70.70
2017-08-28T13:48:10.175Z,72.40
2017-08-28T13:50:37.782Z,70.00
2017-08-28T13:53:06.364Z,70.20
2017-08-28T13:55:34.013Z,71.00
2017-08-28T13:58:03.949Z,70.80
2017-08-28T14:00:35.285Z,71.20
2017-08-28T14:03:02.944Z,70.40
2017-08-28T14:05:30.485Z,71.70
2017-08-28T14:08:02.786Z,70.60
2017-08-28T14:10:30.375Z,72.20
2017-08-28T14:12:57.955Z,70.70
2017-08-28T14:15:25.510Z,70.70
2017-08-28T14:17:53.161Z,70.50
2017-08-28T14:20:20.754Z,71.10
2017-08-28T14:22:48.340Z,71.60
2017-08-28T14:25:15.947Z,69.30
2017-08-28T14:27:43.475Z,70.10
2017-08-28T14:30:11.089Z,68.70
2017-08-28T14:32:38.697Z,68.30
2017-08-28T14:35:07.266Z,68.60
2017-08-28T14:37:34.819Z,69.60
2017-08-28T14:40:02.353Z,68.10
2017-08-28T14:42:29.889Z,67.80
2017-08-28T14:44:57.401Z,67.50
2017-08-28T14:47:25.150Z,67.60
2017-08-28T14:49:52.730Z,67.40
2017-08-28T14:52:20.268Z,66.20
2017-08-28T14:54:47.878Z,66.50
2017-08-28T14:57:15.445Z,66.50
2017-08-28T14:59:43.040Z,66.40
2017-08-28T15:02:10.589Z,66.50
2017-08-28T15:04:38.093Z,66.40
2017-08-28T15:07:05.638Z,64.20
2017-08-28T15:09:33.164Z,65.90
2017-08-28T15:12:00.751Z,65.40
2017-08-28T15:14:28.352Z,66.10
2017-08-28T15:16:55.898Z,63.30
2017-08-28T15:19:23.428Z,65.00
2017-08-28T15:21:51.019Z,65.80
2017-08-28T15:24:18.538Z,64.80
2017-08-28T15:26:46.069Z,64.80
2017-08-28T15:29:13.629Z,66.60
2017-08-28T15:31:41.161Z,66.80
2017-08-28T15:34:08.684Z,67.70
2017-08-28T15:36:36.225Z,68.40
2017-08-28T15:39:03.755Z,68.40
2017-08-28T15:41:31.266Z,69.50
2017-08-28T15:43:58.812Z,68.70
2017-08-28T15:46:26.525Z,67.90
2017-08-28T15:48:54.036Z,68.90
2017-08-28T15:51:21.650Z,68.90
2017-08-28T15:53:49.225Z,70.00
2017-08-28T15:56:16.767Z,69.50
2017-08-28T15:58:44.293Z,69.20
2017-08-28T16:01:11.824Z,68.80
2017-08-28T16:03:39.355Z,69.00
2017-08-28T16:06:06.876Z,69.40
2017-08-28T16:08:34.408Z,69.10
2017-08-28T16:11:01.932Z,69.90
2017-08-28T16:13:29.431Z,68.80
2017-08-28T16:15:56.973Z,69.50
2017-08-28T16:18:24.500Z,68.40
2017-08-28T16:20:52.023Z,70.10
2017-08-28T16:23:19.551Z,71.00
2017-08-28T16:25:48.061Z,70.50
2017-08-28T16:28:15.579Z,70.90
2017-08-28T16:30:44.712Z,71.20
2017-08-28T16:33:12.249Z,71.30
2017-08-28T16:35:42.735Z,72.30
2017-08-28T16:38:10.308Z,73.00
2017-08-28T16:40:37.838Z,70.80
2017-08-28T16:43:05.449Z,70.00
2017-08-28T16:45:32.966Z,71.60
2017-08-28T16:48:00.553Z,71.80
2017-08-28T16:50:28.187Z,72.00
2017-08-28T16:52:55.827Z,72.80
2017-08-28T16:55:23.562Z,72.20
2017-08-28T16:57:51.367Z,72.70
2017-08-28T17:00:19.051Z,72.40
2017-08-28T17:02:46.723Z,72.50
2017-08-28T17:07:46.316Z,73.10
2017-08-28T17:10:13.893Z,72.70
2017-08-28T17:12:41.476Z,73.20
2017-08-28T17:17:40.836Z,73.10
2017-08-28T17:20:32.345Z,72.80
2017-08-28T17:23:07.037Z,73.20
2017-08-28T17:25:36.003Z,73.00
2017-08-28T17:28:03.617Z,73.20
2017-08-28T17:30:31.139Z,73.40
2017-08-28T17:32:58.671Z,73.70
2017-08-28T17:35:27.093Z,73.80
2017-08-28T17:37:54.617Z,74.20
2017-08-28T17:40:22.158Z,74.60
2017-08-28T17:42:49.710Z,75.40
2017-08-28T17:45:17.247Z,75.10
2017-08-28T17:47:44.769Z,75.30
2017-08-28T17:50:12.328Z,76.20
2017-08-28T17:52:39.844Z,75.80
2017-08-28T17:55:07.365Z,76.90
2017-08-28T17:57:34.898Z,77.50
2017-08-28T18:00:02.424Z,79.00
2017-08-28T18:02:30.007Z,78.60
2017-08-28T18:04:57.554Z,79.00
2017-08-28T18:07:25.121Z,79.50
2017-08-28T18:09:52.655Z,80.70
2017-08-28T18:12:20.202Z,80.90
2017-08-28T18:14:47.737Z,82.30
2017-08-28T18:17:15.269Z,81.80
2017-08-28T18:19:42.818Z,82.50
2017-08-28T18:22:10.339Z,83.40
2017-08-28T18:24:37.884Z,84.20
2017-08-28T18:27:05.413Z,84.80
2017-08-28T18:29:32.965Z,85.60
2017-08-28T18:32:00.507Z,84.60
2017-08-28T18:34:28.064Z,86.70
2017-08-28T18:36:55.606Z,86.60
2017-08-28T18:39:23.153Z,87.80
2017-08-28T18:41:50.710Z,87.90
2017-08-28T18:44:18.234Z,88.30
2017-08-28T18:46:58.359Z,89.50
2017-08-28T18:49:25.869Z,88.80
2017-08-28T18:51:53.424Z,89.90
2017-08-28T18:54:20.933Z,89.90
2017-08-28T18:56:48.466Z,89.70
2017-08-28T18:59:15.979Z,90.20
2017-08-28T19:01:43.501Z,90.50
2017-08-28T19:04:11.062Z,90.90
2017-08-28T19:06:38.572Z,90.40
2017-08-28T19:09:06.093Z,90.60
2017-08-28T19:11:33.602Z,90.90
2017-08-28T19:14:01.133Z,91.00
2017-08-28T19:16:28.640Z,91.20
2017-08-28T19:18:56.170Z,91.00
2017-08-28T19:21:23.684Z,91.10
2017-08-28T19:23:51.202Z,91.20
2017-08-28T19:26:18.728Z,91.30
2017-08-28T19:28:46.240Z,91.30
2017-08-28T19:31:13.765Z,91.50
2017-08-28T19:33:51.619Z,91.50
2017-08-28T19:36:19.235Z,91.80
2017-08-28T19:38:46.777Z,91.70
2017-08-28T19:41:14.308Z,91.60
2017-08-28T19:43:41.815Z,91.70
2017-08-28T19:46:09.377Z,91.70
2017-08-28T19:48:37.082Z,91.90
2017-08-28T19:51:04.620Z,91.80
2017-08-28T19:53:32.160Z,91.90
2017-08-28T19:55:59.674Z,91.80
2017-08-28T19:58:27.200Z,91.80
2017-08-28T20:00:54.696Z,91.90
2017-08-28T20:03:22.196Z,92.00
2017-08-28T20:05:49.738Z,92.10
2017-08-28T20:08:17.244Z,92.00
2017-08-28T20:10:44.774Z,92.10
2017-08-28T20:13:12.291Z,92.20
2017-08-28T20:15:40.773Z,92.10
2017-08-28T20:18:08.285Z,92.10
2017-08-28T20:20:35.820Z,92.00
2017-08-28T20:23:03.321Z,92.10
2017-08-28T20:25:30.829Z,92.20
2017-08-28T20:27:58.365Z,92.30
2017-08-28T20:30:25.884Z,92.30
2017-08-28T20:32:53.409Z,92.50
2017-08-28T20:35:29.958Z,92.40
2017-08-28T20:37:57.548Z,92.50
2017-08-28T20:40:25.060Z,92.40
2017-08-28T20:42:52.646Z,92.40
2017-08-28T20:45:20.182Z,92.60
2017-08-28T20:47:47.702Z,92.50
2017-08-28T20:50:15.438Z,92.70
2017-08-28T20:52:43.355Z,92.60
2017-08-28T20:55:11.342Z,92.60
2017-08-28T20:57:39.680Z,92.60
2017-08-28T21:00:07.244Z,92.70
2017-08-28T21:02:34.753Z,92.80
2017-08-28T21:05:02.280Z,93.00
2017-08-28T21:07:29.811Z,92.70
2017-08-28T21:09:57.412Z,92.70
2017-08-28T21:12:25.046Z,92.90
2017-08-28T21:14:52.554Z,92.90
2017-08-28T21:17:20.105Z,93.20
2017-08-28T21:19:47.631Z,93.40
2017-08-28T21:22:15.180Z,93.20
2017-08-28T21:24:42.908Z,93.20
2017-08-28T21:27:10.434Z,93.40
2017-08-28T21:29:38.071Z,93.60
2017-08-28T21:32:05.595Z,93.70
2017-08-28T21:34:33.136Z,93.70
2017-08-28T21:37:00.646Z,93.50
2017-08-28T21:39:28.185Z,93.50
2017-08-28T21:41:55.696Z,93.50
2017-08-28T21:44:23.205Z,93.80
2017-08-28T21:46:50.730Z,93.70
2017-08-28T21:49:18.249Z,94.10
2017-08-28T21:51:45.789Z,93.70
2017-08-28T21:54:13.382Z,93.90
2017-08-28T21:56:40.934Z,93.90
2017-08-28T21:59:08.469Z,93.90
2017-08-28T22:01:35.985Z,93.80
2017-08-28T22:04:03.515Z,93.90
2017-08-28T22:06:31.033Z,93.90
2017-08-28T22:08:58.577Z,93.90
2017-08-28T22:11:26.091Z,94.10
2017-08-28T22:13:53.660Z,94.20
2017-08-28T22:16:21.186Z,94.20
2017-08-28T22:18:48.722Z,94.30
2017-08-28T22:21:17.045Z,94.60
2017-08-28T22:23:44.579Z,94.10
2017-08-28T22:26:12.136Z,94.20
2017-08-28T22:28:39.645Z,94.20
2017-08-28T22:31:07.171Z,94.10
2017-08-28T22:33:34.709Z,94.10
2017-08-28T22:36:05.974Z,94.10
2017-08-28T22:38:33.528Z,94.30
2017-08-28T22:41:01.040Z,94.30
2017-08-28T22:43:29.016Z,94.00
2017-08-28T22:45:56.534Z,94.20
2017-08-28T22:48:24.072Z,94.40
2017-08-28T22:50:51.613Z,94.40
2017-08-28T22:53:19.129Z,94.20
2017-08-28T22:55:46.638Z,94.40
2017-08-28T22:58:14.177Z,94.40
2017-08-28T23:00:41.701Z,94.60
2017-08-28T23:03:09.218Z,94.60
2017-08-28T23:05:36.865Z,94.70
2017-08-28T23:08:04.429Z,94.70
2017-08-28T23:10:31.958Z,94.70
2017-08-28T23:12:59.466Z,94.90
2017-08-28T23:15:27.007Z,95.00
2017-08-28T23:17:54.572Z,94.90
2017-08-28T23:20:22.073Z,95.00
2017-08-28T23:22:49.597Z,95.00
2017-08-28T23:25:17.100Z,95.10
2017-08-28T23:27:44.631Z,94.90
2017-08-28T23:30:12.136Z,95.20
2017-08-28T23:32:39.668Z,95.10
2017-08-28T23:35:07.189Z,95.10
2017-08-28T23:37:34.877Z,95.40
2017-08-28T23:40:02.404Z,95.50
2017-08-28T23:42:29.936Z,95.60
2017-08-28T23:44:57.493Z,95.70
2017-08-28T23:47:25.001Z,95.60
2017-08-28T23:49:52.551Z,95.60
2017-08-28T23:52:20.053Z,95.60
2017-08-28T23:54:47.583Z,95.80
2017-08-28T23:57:15.088Z,95.90
2017-08-28T23:59:42.622Z,96.40
